Time;durP1;ratioP1;P1;durP2;ratioP2;P2;SDS_P1;SDS_P2;PMS_P1;PMS_P2;Temp;Humidity;BMP_temperature;BMP_pressure;BME280_temperature;BME280_humidity;BME280_pressure;Samples;Min_cycle;Max_cycle;Signal;HPM_P1;HPM_P2
2023/01/25 01:14:22;;;;;;;52.40;29.80;;;;;;;3.75;100.00;102244.20;107295;1280;1002498;-68
2023/01/25 01:16:54;;;;;;;53.40;27.80;;;;;;;5.80;100.00;102227.08;108417;1282;21993;-59
2023/01/25 01:19:19;;;;;;;53.30;29.10;;;;;;;6.23;100.00;102223.23;108273;1284;21981;-68
2023/01/25 01:21:45;;;;;;;51.30;28.70;;;;;;;6.47;100.00;102219.52;108229;1284;22100;-60
2023/01/25 01:24:11;;;;;;;48.70;29.50;;;;;;;6.65;100.00;102216.63;108245;1283;21996;-69
2023/01/25 01:26:38;;;;;;;49.90;28.80;;;;;;;6.79;99.71;102215.70;108061;1281;349677;-68
2023/01/25 01:29:04;;;;;;;48.70;27.20;;;;;;;6.88;98.87;102219.65;108532;1281;22041;-59
2023/01/25 01:31:31;;;;;;;40.60;23.10;;;;;;;6.95;97.66;102217.45;108431;1281;22004;-60
2023/01/25 01:33:57;;;;;;;33.70;22.70;;;;;;;6.99;96.91;102217.58;108540;1281;21989;-67
2023/01/25 01:36:24;;;;;;;39.90;21.80;;;;;;;7.05;96.69;102217.05;108428;1281;22077;-68
2023/01/25 01:38:50;;;;;;;34.80;19.20;;;;;;;7.10;96.27;102214.77;108490;1281;22007;-60
2023/01/25 01:41:17;;;;;;;32.50;18.20;;;;;;;7.11;95.91;102213.06;108493;1281;21987;-60
2023/01/25 01:43:43;;;;;;;35.70;18.90;;;;;;;7.20;95.27;102213.51;108368;1281;21984;-69
2023/01/25 01:46:19;;;;;;;29.40;17.40;;;;;;;7.22;93.97;102211.11;108483;1281;21946;-60
2023/01/25 01:48:51;;;;;;;31.20;18.10;;;;;;;7.20;93.01;102212.80;108481;1281;21988;-60
2023/01/25 01:51:22;;;;;;;34.90;19.10;;;;;;;7.17;92.15;102209.93;108461;1281;22023;-69
2023/01/25 01:53:57;;;;;;;37.00;20.20;;;;;;;7.16;91.91;102210.06;108469;1281;22449;-61
2023/01/25 01:56:28;;;;;;;31.00;19.20;;;;;;;7.11;90.93;102209.92;107760;1281;1003196;-60
2023/01/25 01:58:54;;;;;;;32.60;19.10;;;;;;;7.07;90.11;102206.98;108543;1281;22017;-69
2023/01/25 02:01:21;;;;;;;32.50;19.40;;;;;;;7.02;90.12;102204.56;108448;1282;21980;-61
2023/01/25 02:03:47;;;;;;;31.90;19.70;;;;;;;6.96;89.47;102201.95;108467;1281;21989;-69
2023/01/25 02:06:23;;;;;;;29.50;18.10;;;;;;;6.94;89.54;102201.02;108552;1268;22022;-60
2023/01/25 02:08:49;;;;;;;33.00;18.40;;;;;;;6.97;89.88;102198.14;108463;1281;21998;-60
2023/01/25 02:11:15;;;;;;;28.40;17.00;;;;;;;6.98;89.41;102196.06;108339;1281;21979;-61
2023/01/25 02:13:40;;;;;;;28.40;18.20;;;;;;;6.97;89.11;102196.21;108283;1281;21992;-69
2023/01/25 02:16:12;;;;;;;31.30;18.40;;;;;;;6.95;88.81;102195.61;108364;1281;21998;-69
2023/01/25 02:18:38;;;;;;;28.00;16.60;;;;;;;6.93;88.40;102195.40;108431;1281;21983;-61
2023/01/25 02:21:04;;;;;;;30.20;18.40;;;;;;;6.84;88.02;102192.67;108536;1281;22020;-61
2023/01/25 02:23:39;;;;;;;29.90;17.80;;;;;;;6.82;87.84;102193.14;108464;1281;22021;-69
2023/01/25 02:26:05;;;;;;;25.70;16.00;;;;;;;6.78;87.96;102192.30;108487;1270;21980;-62
2023/01/25 02:28:41;;;;;;;26.50;16.00;;;;;;;6.71;88.32;102186.81;108529;1281;22093;-62
2023/01/25 02:31:07;;;;;;;31.50;17.30;;;;;;;6.74;88.03;102185.89;108488;1281;21991;-61
2023/01/25 02:33:33;;;;;;;27.40;16.70;;;;;;;6.76;88.38;102184.74;108509;1281;21983;-69
2023/01/25 02:36:00;;;;;;;28.10;18.20;;;;;;;6.78;87.95;102186.35;108436;1281;22063;-61
2023/01/25 02:38:37;;;;;;;28.90;17.90;;;;;;;6.77;87.61;102189.98;108580;1281;21955;-61
2023/01/25 02:41:10;;;;;;;30.60;17.70;;;;;;;6.76;87.67;102185.77;108399;1281;21997;-69
2023/01/25 02:43:36;;;;;;;29.90;17.10;;;;;;;6.77;87.70;102184.77;108409;1282;22000;-61
2023/01/25 02:46:32;;;;;;;27.50;16.90;;;;;;;6.78;88.05;102187.44;108497;1282;21985;-61
2023/01/25 02:48:58;;;;;;;26.40;16.50;;;;;;;6.83;87.60;102188.09;108368;1282;21981;-69
2023/01/25 02:51:25;;;;;;;29.20;16.50;;;;;;;6.84;87.65;102190.23;107721;1281;1002849;-60
2023/01/25 02:53:51;;;;;;;27.40;16.90;;;;;;;6.86;87.53;102190.09;108530;1273;21983;-69
2023/01/25 02:56:17;;;;;;;28.90;17.00;;;;;;;6.87;87.40;102186.81;108447;1281;22701;-69
2023/01/25 02:58:43;;;;;;;27.40;17.60;;;;;;;6.85;86.95;102188.33;108527;1281;22025;-60
2023/01/25 03:01:09;;;;;;;31.90;18.30;;;;;;;6.85;86.93;102185.88;108417;1273;21997;-60
2023/01/25 03:03:35;;;;;;;26.40;16.30;;;;;;;6.86;86.99;102185.05;108394;1282;23799;-69
2023/01/25 03:06:05;;;;;;;31.90;19.00;;;;;;;6.86;86.56;102186.61;108396;1276;21983;-69
2023/01/25 03:08:32;;;;;;;30.70;18.00;;;;;;;6.84;86.60;102187.09;108443;1282;22079;-68
2023/01/25 03:10:58;;;;;;;25.10;15.10;;;;;;;6.84;86.63;102187.27;108445;1281;21967;-60
2023/01/25 03:13:24;;;;;;;30.30;15.30;;;;;;;6.86;86.89;102190.27;108373;1281;22557;-60
2023/01/25 03:15:58;;;;;;;23.80;15.00;;;;;;;6.88;86.88;102188.77;108414;1270;21983;-69
2023/01/25 03:18:25;;;;;;;28.00;14.50;;;;;;;6.89;86.71;102187.41;108442;1280;22028;-60
2023/01/25 03:20:50;;;;;;;27.40;16.60;;;;;;;6.89;86.52;102185.30;108500;1281;22170;-60
2023/01/25 03:23:16;;;;;;;30.90;17.00;;;;;;;6.87;86.39;102188.23;107746;1280;1003007;-61
2023/01/25 03:25:42;;;;;;;27.60;16.50;;;;;;;6.85;85.93;102191.81;108417;1281;21979;-60
2023/01/25 03:28:09;;;;;;;24.90;15.10;;;;;;;6.82;85.64;102190.34;108419;1281;21981;-69
2023/01/25 03:30:35;;;;;;;30.30;16.40;;;;;;;6.82;85.91;102189.98;108419;1281;22134;-61
2023/01/25 03:33:01;;;;;;;26.80;15.90;;;;;;;6.84;85.81;102192.84;108441;1282;23757;-61
2023/01/25 03:35:27;;;;;;;29.20;15.70;;;;;;;6.85;86.14;102192.33;108379;1282;21985;-61
2023/01/25 03:37:53;;;;;;;25.10;14.90;;;;;;;6.87;86.14;102191.54;108454;1279;21988;-61
2023/01/25 03:40:18;;;;;;;28.60;15.60;;;;;;;6.90;85.92;102194.05;108397;1270;21991;-61
2023/01/25 03:42:44;;;;;;;28.90;15.70;;;;;;;6.91;86.15;102192.70;108366;1281;22000;-60
2023/01/25 03:45:13;;;;;;;28.70;15.70;;;;;;;6.95;86.23;102189.88;108401;1281;21991;-69
2023/01/25 03:47:39;;;;;;;28.50;15.90;;;;;;;6.97;85.65;102191.85;108439;1281;22021;-61
2023/01/25 03:50:07;;;;;;;29.70;16.70;;;;;;;6.95;84.97;102187.25;108363;1281;21980;-69
2023/01/25 03:52:37;;;;;;;25.50;15.50;;;;;;;6.93;84.85;102192.23;108366;1282;21986;-69
2023/01/25 03:55:04;;;;;;;28.80;16.10;;;;;;;6.90;85.07;102189.86;108383;1275;22246;-60
2023/01/25 03:57:30;;;;;;;26.90;16.20;;;;;;;6.90;85.29;102187.10;108374;1282;22016;-69
2023/01/25 03:59:56;;;;;;;23.40;14.90;;;;;;;6.92;85.23;102190.83;108373;1282;21994;-69
2023/01/25 04:02:21;;;;;;;26.70;14.60;;;;;;;6.94;85.19;102190.00;108334;1281;22280;-71
2023/01/25 04:04:49;;;;;;;25.80;15.00;;;;;;;6.95;85.61;102189.89;108423;1281;21983;-60
2023/01/25 10:07:18;;;;;;;29.50;16.60;;;;;;;4.92;100.00;102141.62;107300;1288;548117;-60
2023/01/25 10:09:48;;;;;;;32.40;18.20;;;;;;;8.13;100.00;102122.95;107580;1292;23707;-60
2023/01/25 10:12:16;;;;;;;38.20;20.20;;;;;;;8.73;100.00;102118.17;107501;1294;21995;-67
2023/01/25 10:14:41;;;;;;;35.40;18.20;;;;;;;9.06;100.00;102113.66;107539;1292;24344;-67
2023/01/25 10:17:17;;;;;;;31.10;18.70;;;;;;;9.31;100.00;102119.11;107468;1283;22001;-62
2023/01/25 10:19:56;;;;;;;27.70;15.10;;;;;;;9.51;100.00;102117.22;107432;1289;458729;-60
2023/01/25 10:22:23;;;;;;;22.00;12.90;;;;;;;9.57;100.00;102109.80;107877;1289;22369;-67
2023/01/25 10:24:52;;;;;;;18.10;12.10;;;;;;;9.66;100.00;102112.96;107820;1292;21997;-67
2023/01/25 10:27:33;;;;;;;19.10;12.00;;;;;;;9.70;99.43;102115.66;107845;1292;23728;-61
2023/01/25 10:30:20;;;;;;;18.90;10.90;;;;;;;9.74;98.76;102111.54;107884;1281;22005;-68
2023/01/25 10:32:46;;;;;;;19.40;11.20;;;;;;;9.86;98.39;102101.94;107796;1289;22034;-61
2023/01/25 10:35:16;;;;;;;18.40;10.90;;;;;;;9.94;96.99;102094.70;107728;1292;22001;-69
2023/01/25 10:37:42;;;;;;;23.30;11.80;;;;;;;9.88;97.60;102087.96;107805;1291;22168;-69
2023/01/25 10:40:16;;;;;;;19.20;11.40;;;;;;;9.92;97.54;102081.89;107907;1280;22007;-60
2023/01/25 10:43:02;;;;;;;18.60;10.60;;;;;;;9.99;97.36;102084.80;107798;1292;21999;-61
2023/01/25 10:45:28;;;;;;;18.50;10.90;;;;;;;10.00;95.57;102088.15;107817;1291;22008;-60
2023/01/25 10:48:02;;;;;;;19.10;11.30;;;;;;;10.06;95.55;102088.08;107744;1290;22058;-61
2023/01/25 10:50:41;;;;;;;18.80;11.60;;;;;;;10.12;95.95;102079.42;107049;1291;1002844;-67
2023/01/25 10:53:35;;;;;;;21.20;11.40;;;;;;;10.16;95.69;102074.92;107871;1292;21995;-61
2023/01/25 10:56:10;;;;;;;20.20;11.30;;;;;;;10.17;94.77;102068.09;107911;1282;22037;-62
2023/01/25 10:58:39;;;;;;;19.50;11.30;;;;;;;10.13;93.07;102068.73;107862;1291;22012;-68
2023/01/25 11:01:08;;;;;;;17.90;10.90;;;;;;;10.03;91.68;102069.27;108279;1287;22080;-61
2023/01/25 11:03:39;;;;;;;19.50;11.50;;;;;;;9.95;91.24;102066.84;107483;1291;21998;-68
2023/01/25 11:06:14;;;;;;;19.60;11.60;;;;;;;9.83;90.96;102067.00;108434;1288;21998;-68
2023/01/25 11:08:42;;;;;;;16.50;10.40;;;;;;;9.74;91.02;102060.33;107823;1292;22003;-61
2023/01/25 11:11:24;;;;;;;22.70;11.50;;;;;;;9.68;91.38;102056.21;107912;1291;22002;-61
2023/01/25 11:13:51;;;;;;;20.00;11.70;;;;;;;9.66;91.02;102053.55;107964;1291;21991;-68
2023/01/25 11:16:28;;;;;;;20.20;11.60;;;;;;;9.70;89.41;102056.41;107793;1288;22022;-69
2023/01/25 11:18:56;;;;;;;18.30;11.10;;;;;;;9.69;88.74;102050.98;107809;1281;23104;-69
2023/01/25 11:21:34;;;;;;;16.40;11.20;;;;;;;9.67;88.67;102046.03;107855;1292;22183;-69
2023/01/25 11:24:15;;;;;;;20.90;11.80;;;;;;;9.66;89.32;102043.21;107814;1292;22042;-62
2023/01/25 11:26:41;;;;;;;19.90;11.80;;;;;;;9.64;88.15;102035.29;107801;1292;21998;-68
2023/01/25 11:29:14;;;;;;;19.10;12.60;;;;;;;9.59;87.43;102046.05;107705;1280;21996;-68
2023/01/25 11:31:44;;;;;;;19.90;11.90;;;;;;;9.55;87.51;102052.63;107763;1292;22006;-68
2023/01/25 11:34:12;;;;;;;25.80;13.50;;;;;;;9.55;88.36;102045.45;107770;1290;21999;-68
2023/01/25 11:36:59;;;;;;;23.90;12.40;;;;;;;9.57;88.41;102045.30;107794;1292;22005;-68
2023/01/25 11:39:55;;;;;;;19.30;11.10;;;;;;;9.57;87.97;102048.30;107718;1287;22002;-68
2023/01/25 11:42:31;;;;;;;18.80;11.10;;;;;;;9.57;87.63;102048.29;107690;1292;21996;-69
2023/01/25 11:45:11;;;;;;;25.70;13.40;;;;;;;9.40;87.68;102044.65;107931;1292;21999;-67
2023/01/25 11:47:40;;;;;;;19.60;11.70;;;;;;;9.28;87.65;102046.86;107725;1292;22007;-60
2023/01/25 11:50:32;;;;;;;24.60;11.80;;;;;;;9.23;87.82;102052.37;107701;1292;22733;-67
2023/01/25 11:53:01;;;;;;;18.40;11.40;;;;;;;9.19;88.37;102051.25;107755;1292;21999;-61
2023/01/25 11:55:58;;;;;;;21.70;13.60;;;;;;;9.16;88.24;102051.36;107724;1278;21999;-68
2023/01/25 11:58:39;;;;;;;20.30;11.90;;;;;;;9.14;88.17;102050.61;107621;1292;23672;-68
2023/01/25 12:01:33;;;;;;;19.70;11.80;;;;;;;9.15;88.22;102055.02;107718;1289;21999;-67
2023/01/25 12:04:16;;;;;;;22.00;12.30;;;;;;;9.28;87.74;102052.11;107893;1292;23058;-61
2023/01/25 12:06:50;;;;;;;23.90;13.30;;;;;;;9.36;86.86;102058.77;107937;1289;22003;-61
2023/01/25 12:09:25;;;;;;;20.00;11.60;;;;;;;9.38;86.69;102060.90;107818;1291;21997;-68
2023/01/25 12:12:29;;;;;;;22.40;12.90;;;;;;;9.41;86.78;102050.79;107928;1291;22002;-61
2023/01/25 12:15:01;;;;;;;21.70;11.70;;;;;;;9.40;86.36;102052.17;107844;1291;23059;-68
2023/01/25 12:17:40;;;;;;;18.70;11.40;;;;;;;9.41;86.34;102055.70;107689;1290;23733;-61
2023/01/25 12:20:13;;;;;;;18.10;8.90;;;;;;;9.42;86.36;102055.55;107952;1285;23493;-69
2023/01/25 12:23:04;;;;;;;23.80;13.00;;;;;;;9.43;85.92;102052.77;108204;1290;22002;-62
2023/01/25 12:25:48;;;;;;;23.40;13.10;;;;;;;9.39;85.47;102049.52;107628;1286;22009;-62
2023/01/25 12:28:20;;;;;;;25.70;12.90;;;;;;;9.36;85.38;102051.93;107750;1291;22030;-68
2023/01/25 12:31:04;;;;;;;26.50;13.20;;;;;;;9.33;85.12;102050.65;107738;1291;23724;-62
2023/01/25 12:33:40;;;;;;;30.80;13.70;;;;;;;9.29;84.66;102046.17;108051;1291;21994;-69
2023/01/25 12:36:15;;;;;;;25.80;14.70;;;;;;;9.25;84.47;102050.84;107781;1291;22002;-62
2023/01/25 12:38:44;;;;;;;21.40;12.50;;;;;;;9.23;84.97;102054.84;107720;1291;22002;-68
2023/01/25 12:41:38;;;;;;;23.00;12.20;;;;;;;9.25;85.13;102048.56;107754;1291;23064;-63
2023/01/25 12:44:14;;;;;;;25.60;14.00;;;;;;;9.28;85.20;102046.86;107631;1291;21996;-62
2023/01/25 12:46:49;;;;;;;25.20;13.00;;;;;;;9.29;85.19;102047.94;107841;1290;22007;-69
2023/01/25 12:49:42;;;;;;;22.80;13.30;;;;;;;9.28;84.90;102049.14;107013;1291;1002562;-62
2023/01/25 12:52:35;;;;;;;26.60;13.80;;;;;;;9.26;84.62;102050.69;107962;1291;22004;-62
2023/01/25 12:55:03;;;;;;;28.60;13.20;;;;;;;9.23;84.38;102045.20;107795;1291;21999;-69
2023/01/25 12:57:50;;;;;;;29.70;13.60;;;;;;;9.21;84.42;102046.20;107715;1291;22464;-69
2023/01/25 13:00:24;;;;;;;27.30;13.50;;;;;;;9.15;84.89;102050.98;107881;1279;21993;-62
2023/01/25 19:16:27;;;;;;;28.40;15.60;;;;;;;2.00;100.00;102027.80;107385;1288;547890;-60
2023/01/25 19:18:53;;;;;;;36.40;18.10;;;;;;;5.09;100.00;102006.83;106859;1292;1002359;-60
2023/01/25 19:21:23;;;;;;;35.30;19.00;;;;;;;5.67;100.00;102002.45;107642;1294;22001;-68
2023/01/25 19:23:49;;;;;;;35.20;19.30;;;;;;;5.96;99.94;101998.34;107579;1294;22045;-69
2023/01/25 19:26:16;;;;;;;33.50;18.30;;;;;;;6.18;99.61;101998.55;107727;1292;22000;-68
2023/01/25 19:28:43;;;;;;;34.30;18.90;;;;;;;6.31;98.24;101994.06;107350;1293;261129;-69
2023/01/25 19:31:20;;;;;;;30.80;16.40;;;;;;;6.39;97.50;101993.10;107975;1292;21998;-60
2023/01/25 19:33:46;;;;;;;26.30;15.50;;;;;;;6.50;96.87;101992.92;107794;1292;22042;-69
2023/01/25 19:36:15;;;;;;;22.40;13.60;;;;;;;6.60;96.07;101993.74;107743;1292;23060;-69
2023/01/25 19:38:41;;;;;;;24.20;13.40;;;;;;;6.69;95.67;101990.32;107748;1292;23729;-60
2023/01/25 19:41:09;;;;;;;24.10;12.00;;;;;;;6.77;94.97;101984.98;107716;1292;22013;-69
2023/01/25 19:43:35;;;;;;;19.30;11.60;;;;;;;6.82;94.43;101978.85;107791;1292;22011;-60
2023/01/25 19:46:11;;;;;;;29.00;12.40;;;;;;;6.88;94.07;101975.16;107766;1292;22479;-69
2023/01/25 19:48:38;;;;;;;22.70;11.10;;;;;;;6.92;93.25;101980.52;107776;1292;22045;-69
2023/01/25 19:51:12;;;;;;;23.30;13.40;;;;;;;6.93;92.80;101986.15;107756;1291;22288;-63
2023/01/25 19:53:45;;;;;;;23.50;12.80;;;;;;;6.96;92.30;101983.63;107704;1292;22004;-69
2023/01/25 19:56:13;;;;;;;23.80;12.70;;;;;;;7.00;91.64;101977.96;107885;1292;22013;-61
2023/01/25 19:58:41;;;;;;;39.40;13.80;;;;;;;7.04;91.10;101974.07;107740;1292;23615;-69
2023/01/25 20:01:07;;;;;;;21.10;10.90;;;;;;;7.08;90.66;101974.33;107867;1292;21990;-60
2023/01/25 20:03:34;;;;;;;22.00;12.40;;;;;;;7.11;90.45;101972.69;107747;1292;21965;-60
2023/01/25 20:06:01;;;;;;;23.80;11.80;;;;;;;7.14;90.14;101972.75;107727;1292;22002;-69
2023/01/25 20:08:28;;;;;;;19.80;11.40;;;;;;;7.17;89.70;101973.88;107795;1292;22010;-61
2023/01/25 20:11:11;;;;;;;22.00;12.00;;;;;;;7.11;89.67;101970.41;107719;1292;21999;-60
2023/01/25 20:13:37;;;;;;;22.10;11.90;;;;;;;7.08;90.01;101968.05;107906;1291;21995;-68
2023/01/25 20:16:05;;;;;;;25.30;12.90;;;;;;;7.08;89.44;101967.69;107087;1292;1003053;-69
2023/01/25 20:18:34;;;;;;;23.40;13.50;;;;;;;7.10;88.92;101965.14;107775;1291;22071;-68
2023/01/25 20:21:02;;;;;;;23.90;13.00;;;;;;;7.19;87.98;101964.86;107809;1280;21983;-69
2023/01/25 20:23:32;;;;;;;24.30;13.00;;;;;;;7.21;87.52;101968.76;107823;1291;22003;-69
2023/01/25 20:25:58;;;;;;;;;;;;;;;7.23;87.54;101968.98;103403;1292;1003263;-60
2023/01/25 20:28:25;;;;;;;24.10;14.00;;;;;;;7.24;87.50;101965.70;107771;1292;21999;-61
2023/01/25 20:30:50;;;;;;;23.40;12.80;;;;;;;7.25;87.58;101961.70;107757;1292;21999;-60
2023/01/25 20:33:17;;;;;;;20.80;12.20;;;;;;;7.26;87.53;101961.23;107772;1280;23391;-62
2023/01/25 20:35:44;;;;;;;22.40;13.30;;;;;;;7.28;86.95;101961.60;107729;1292;22014;-60
2023/01/25 20:38:09;;;;;;;24.50;13.10;;;;;;;7.29;87.03;101961.11;107798;1292;22167;-69
2023/01/25 20:40:35;;;;;;;25.70;14.20;;;;;;;7.30;86.56;101960.08;107716;1292;22009;-69
2023/01/25 20:43:01;;;;;;;25.00;14.50;;;;;;;7.28;86.07;101958.48;107727;1292;22764;-61
2023/01/25 20:45:27;;;;;;;25.10;14.50;;;;;;;7.26;85.85;101957.72;107734;1284;22173;-71
2023/01/25 20:47:53;;;;;;;25.10;13.70;;;;;;;7.23;85.47;101953.80;107713;1292;21999;-69
2023/01/25 20:50:18;;;;;;;26.30;14.00;;;;;;;7.21;85.25;101957.41;107740;1292;21997;-61
2023/01/25 20:52:44;;;;;;;25.90;13.50;;;;;;;7.20;84.99;101957.21;107766;1292;22087;-69
2023/01/25 20:55:10;;;;;;;22.80;12.60;;;;;;;7.19;84.69;101961.38;107729;1292;22009;-69
2023/01/25 20:57:36;;;;;;;21.50;12.60;;;;;;;7.19;84.92;101956.84;107742;1292;22005;-69
2023/01/25 21:00:03;;;;;;;20.10;12.60;;;;;;;7.17;84.66;101951.88;107917;1292;22012;-69
2023/01/25 21:02:30;;;;;;;24.30;13.40;;;;;;;7.15;84.89;101954.10;107888;1292;23702;-69
2023/01/25 21:04:55;;;;;;;22.60;12.50;;;;;;;7.14;84.72;101951.29;107831;1292;22034;-61
2023/01/25 21:07:21;;;;;;;22.40;13.90;;;;;;;7.11;84.89;101948.42;107876;1292;22004;-69
2023/01/25 21:09:49;;;;;;;23.90;14.40;;;;;;;7.10;84.62;101952.59;107950;1292;24413;-69
2023/01/25 21:12:15;;;;;;;22.30;11.80;;;;;;;7.10;84.58;101954.13;107726;1279;22009;-63
2023/01/25 21:14:41;;;;;;;24.60;13.50;;;;;;;7.09;84.89;101953.94;107779;1291;22045;-60
2023/01/25 21:17:09;;;;;;;21.10;11.90;;;;;;;7.10;84.66;101951.89;107763;1287;22001;-61
2023/01/25 21:19:35;;;;;;;19.80;11.40;;;;;;;7.14;84.88;101950.23;107834;1292;23739;-61
2023/01/25 21:22:01;;;;;;;19.80;12.00;;;;;;;7.16;85.12;101953.95;107918;1291;21996;-69
2023/01/25 21:24:26;;;;;;;23.50;13.30;;;;;;;7.17;85.05;101953.98;107980;1292;22278;-60
2023/01/25 21:26:53;;;;;;;25.40;14.50;;;;;;;7.18;84.53;101951.92;107778;1292;22007;-60
2023/01/25 21:29:19;;;;;;;24.00;15.20;;;;;;;7.20;84.51;101951.10;107891;1292;22019;-61
2023/01/25 21:31:49;;;;;;;24.80;14.40;;;;;;;7.17;84.15;101950.85;107766;1289;22009;-69
2023/01/25 21:34:15;;;;;;;24.00;13.80;;;;;;;7.12;84.25;101949.48;107811;1288;22001;-60
2023/01/25 21:36:42;;;;;;;33.00;16.30;;;;;;;7.10;84.34;101943.67;107739;1292;22004;-69
2023/01/25 21:39:08;;;;;;;36.80;20.40;;;;;;;7.12;83.93;101935.69;107855;1292;22037;-61
2023/01/25 21:41:35;;;;;;;28.50;15.70;;;;;;;7.13;83.25;101936.59;107978;1292;22000;-69
2023/01/25 21:46:46;;;;;;;23.50;13.50;;;;;;;7.17;83.37;101933.37;107937;1292;22020;-69
2023/01/25 21:52:00;;;;;;;22.50;12.70;;;;;;;7.17;82.61;101936.86;107748;1292;21998;-69
2023/01/25 21:54:33;;;;;;;24.20;13.60;;;;;;;7.19;82.43;101931.34;107761;1292;22010;-61
2023/01/25 21:57:00;;;;;;;27.00;14.40;;;;;;;7.16;82.17;101930.92;107807;1292;22155;-61
2023/01/25 21:59:25;;;;;;;23.20;13.50;;;;;;;7.16;82.01;101925.16;107817;1292;21989;-61
2023/01/25 22:01:51;;;;;;;23.60;13.20;;;;;;;7.18;82.12;101925.72;107840;1285;22034;-61
